createdAt,value
2018-08-22T00:01:27.740Z,1.37
2018-08-22T00:03:55.776Z,1.07
2018-08-22T00:06:23.817Z,1.17
2018-08-22T00:08:51.864Z,1.10
2018-08-22T00:11:19.918Z,1.17
2018-08-22T00:13:48.044Z,1.23
2018-08-22T00:16:16.071Z,1.13
2018-08-22T00:18:44.120Z,1.07
2018-08-22T00:21:12.172Z,1.20
2018-08-22T00:23:40.219Z,1.53
2018-08-22T00:26:08.297Z,1.30
2018-08-22T00:28:36.331Z,1.00
2018-08-22T00:31:04.379Z,1.20
2018-08-22T00:33:32.450Z,1.20
2018-08-22T00:36:00.495Z,1.40
2018-08-22T00:38:28.534Z,1.40
2018-08-22T00:40:56.584Z,1.30
2018-08-22T00:43:24.621Z,1.30
2018-08-22T00:45:52.663Z,1.20
2018-08-22T00:48:20.710Z,1.40
2018-08-22T00:50:48.759Z,1.30
2018-08-22T00:53:16.802Z,1.40
2018-08-22T00:55:44.850Z,1.40
2018-08-22T00:58:12.884Z,1.30
2018-08-22T01:00:40.926Z,1.27
2018-08-22T01:03:09.052Z,1.30
2018-08-22T01:05:37.121Z,1.50
2018-08-22T01:08:05.196Z,1.60
2018-08-22T01:10:33.255Z,1.40
2018-08-22T01:13:01.299Z,1.23
2018-08-22T01:15:29.339Z,1.20
2018-08-22T01:17:57.380Z,1.27
2018-08-22T01:20:25.424Z,1.40
2018-08-22T01:22:53.524Z,1.17
2018-08-22T01:25:21.576Z,1.63
2018-08-22T01:27:49.659Z,1.40
2018-08-22T01:30:17.719Z,1.60
2018-08-22T01:32:45.756Z,1.30
2018-08-22T01:35:13.800Z,1.40
2018-08-22T01:37:41.855Z,1.57
2018-08-22T01:40:09.895Z,1.30
2018-08-22T01:42:38.071Z,1.47
2018-08-22T01:45:06.194Z,1.40
2018-08-22T01:47:34.269Z,1.37
2018-08-22T01:50:02.279Z,1.40
2018-08-22T01:52:30.315Z,1.10
2018-08-22T01:54:58.351Z,1.50
2018-08-22T01:57:26.386Z,1.70
2018-08-22T01:59:54.452Z,1.40
2018-08-22T02:02:22.486Z,1.47
2018-08-22T02:04:50.538Z,1.30
2018-08-22T02:07:18.570Z,1.50
2018-08-22T02:09:46.603Z,1.30
2018-08-22T02:12:14.815Z,1.27
2018-08-22T02:14:42.849Z,1.37
2018-08-22T02:17:10.919Z,1.33
2018-08-22T02:19:39.035Z,1.33
2018-08-22T02:22:07.145Z,1.53
2018-08-22T02:24:35.171Z,1.40
2018-08-22T02:27:03.211Z,1.40
2018-08-22T02:29:31.268Z,1.40
2018-08-22T02:31:59.316Z,1.30
2018-08-22T02:34:27.350Z,1.40
2018-08-22T02:36:55.389Z,1.37
2018-08-22T02:39:23.418Z,1.50
2018-08-22T02:41:51.471Z,1.70
2018-08-22T02:44:19.521Z,1.13
2018-08-22T02:46:47.555Z,1.50
2018-08-22T02:49:15.980Z,1.60
2018-08-22T02:51:44.019Z,1.50
2018-08-22T02:54:12.059Z,1.53
2018-08-22T02:56:40.101Z,1.43
2018-08-22T02:59:08.132Z,1.40
2018-08-22T03:01:36.268Z,1.40
2018-08-22T03:04:04.287Z,1.47
2018-08-22T03:06:32.333Z,1.50
2018-08-22T03:09:00.358Z,1.40
2018-08-22T03:11:28.515Z,1.80
2018-08-22T03:13:56.550Z,1.43
2018-08-22T03:16:24.651Z,1.60
2018-08-22T03:18:52.686Z,1.80
2018-08-22T03:21:20.737Z,1.40
2018-08-22T03:23:48.872Z,1.50
2018-08-22T03:26:16.945Z,1.67
2018-08-22T03:28:44.947Z,1.73
2018-08-22T03:31:13.098Z,1.50
2018-08-22T03:33:41.134Z,1.50
2018-08-22T03:36:09.179Z,1.57
2018-08-22T03:38:37.215Z,1.60
2018-08-22T03:41:05.274Z,1.77
2018-08-22T03:43:33.315Z,1.43
2018-08-22T03:46:01.356Z,1.50
2018-08-22T03:48:29.396Z,1.67
2018-08-22T03:50:57.443Z,1.40
2018-08-22T03:53:25.474Z,1.50
2018-08-22T03:55:53.583Z,1.77
2018-08-22T03:58:21.618Z,1.70
2018-08-22T04:00:49.662Z,1.80
2018-08-22T04:03:17.706Z,1.77
2018-08-22T04:05:45.757Z,1.53
2018-08-22T04:08:13.819Z,1.70
2018-08-22T04:10:41.863Z,2.00
2018-08-22T04:13:09.930Z,1.80
2018-08-22T04:15:37.974Z,2.00
2018-08-22T04:18:06.014Z,2.23
2018-08-22T04:20:34.042Z,2.30
2018-08-22T04:23:02.159Z,2.30
2018-08-22T04:25:30.199Z,2.33
2018-08-22T04:27:58.243Z,2.20
2018-08-22T04:30:26.423Z,2.50
2018-08-22T04:32:54.458Z,2.60
2018-08-22T04:35:22.609Z,2.60
2018-08-22T04:37:50.799Z,2.77
2018-08-22T04:40:18.834Z,2.27
2018-08-22T04:42:46.879Z,2.10
2018-08-22T04:45:14.915Z,2.70
2018-08-22T04:47:43.064Z,2.03
2018-08-22T04:50:11.158Z,2.33
2018-08-22T04:52:39.199Z,2.47
2018-08-22T04:55:07.235Z,1.90
2018-08-22T04:57:35.352Z,1.63
2018-08-22T05:00:03.411Z,2.00
2018-08-22T05:02:31.458Z,1.70
2018-08-22T05:04:59.572Z,1.73
2018-08-22T05:07:27.612Z,1.67
2018-08-22T05:09:55.651Z,1.60
2018-08-22T05:12:23.773Z,1.70
2018-08-22T05:14:51.802Z,1.30
2018-08-22T05:17:19.844Z,1.63
2018-08-22T05:19:47.884Z,1.53
2018-08-22T05:22:15.959Z,1.50
2018-08-22T05:24:44.034Z,1.50
2018-08-22T05:27:12.094Z,1.50
2018-08-22T05:29:40.127Z,1.70
2018-08-22T05:32:08.177Z,1.40
2018-08-22T05:34:36.214Z,1.50
2018-08-22T05:37:04.484Z,1.40
2018-08-22T05:39:32.559Z,1.37
2018-08-22T05:42:00.636Z,1.50
2018-08-22T05:44:28.731Z,1.37
2018-08-22T05:46:56.870Z,2.87
2018-08-22T05:49:25.083Z,1.50
2018-08-22T05:51:53.156Z,1.20
2018-08-22T05:54:21.183Z,1.30
2018-08-22T05:56:49.226Z,1.40
2018-08-22T05:59:17.318Z,1.47
2018-08-22T06:01:45.369Z,1.53
2018-08-22T06:04:13.400Z,2.00
2018-08-22T06:06:41.576Z,1.73
2018-08-22T06:09:11.147Z,1.40
2018-08-22T06:11:39.194Z,1.40
2018-08-22T06:14:07.287Z,1.33
2018-08-22T06:16:35.310Z,1.50
2018-08-22T06:19:03.354Z,1.83
2018-08-22T06:21:31.392Z,1.70
2018-08-22T06:23:59.423Z,2.40
2018-08-22T06:26:27.730Z,1.70
2018-08-22T06:28:55.771Z,2.23
2018-08-22T06:31:23.802Z,2.40
2018-08-22T06:33:51.951Z,1.57
2018-08-22T06:36:20.036Z,1.73
2018-08-22T06:38:48.033Z,1.90
2018-08-22T06:41:16.079Z,1.77
2018-08-22T06:43:44.118Z,2.10
2018-08-22T06:46:12.195Z,1.60
2018-08-22T06:48:40.463Z,1.87
2018-08-22T06:51:08.491Z,2.43
2018-08-22T06:53:36.571Z,2.47
2018-08-22T06:56:04.652Z,2.40
2018-08-22T06:58:32.754Z,3.00
2018-08-22T07:01:00.797Z,2.40
2018-08-22T07:03:28.855Z,2.50
2018-08-22T07:05:56.899Z,2.27
2018-08-22T07:08:24.948Z,2.63
2018-08-22T07:10:52.983Z,2.07
2018-08-22T07:13:21.042Z,2.33
2018-08-22T07:15:49.098Z,2.63
2018-08-22T07:18:17.326Z,2.50
2018-08-22T07:20:45.437Z,2.10
2018-08-22T07:23:13.442Z,2.80
2018-08-22T07:25:41.500Z,1.90
2018-08-22T07:28:09.556Z,1.97
2018-08-22T07:30:37.689Z,2.10
2018-08-22T07:33:05.731Z,3.17
2018-08-22T07:35:33.818Z,2.90
2018-08-22T07:38:01.863Z,2.10
2018-08-22T07:40:29.895Z,1.80
2018-08-22T07:42:57.963Z,1.93
2018-08-22T07:45:26.095Z,1.80
2018-08-22T07:47:54.143Z,1.53
2018-08-22T07:50:22.214Z,2.20
2018-08-22T07:52:55.654Z,1.90
2018-08-22T07:55:23.686Z,1.83
2018-08-22T07:57:51.722Z,1.70
2018-08-22T08:00:19.770Z,1.97
2018-08-22T08:02:47.820Z,1.90
2018-08-22T08:05:15.850Z,1.93
2018-08-22T08:07:43.896Z,1.70
2018-08-22T08:10:17.350Z,1.93
2018-08-22T08:12:45.494Z,2.00
2018-08-22T08:15:14.550Z,1.80
2018-08-22T08:17:42.802Z,1.83
2018-08-22T08:20:10.827Z,1.90
2018-08-22T08:22:39.006Z,1.63
2018-08-22T08:25:07.046Z,1.70
2018-08-22T08:27:35.083Z,1.50
2018-08-22T08:30:03.208Z,2.00
2018-08-22T08:32:31.429Z,1.70
2018-08-22T08:34:59.476Z,1.67
2018-08-22T08:37:27.558Z,1.77
2018-08-22T08:39:55.630Z,1.70
2018-08-22T08:42:23.663Z,1.73
2018-08-22T08:44:51.708Z,1.70
2018-08-22T08:47:19.750Z,1.90
2018-08-22T08:49:47.819Z,1.70
2018-08-22T08:52:16.292Z,1.63
2018-08-22T08:57:25.981Z,1.60
2018-08-22T08:59:53.942Z,1.47
2018-08-22T09:02:21.977Z,1.17
2018-08-22T09:04:50.020Z,1.30
2018-08-22T09:07:18.075Z,1.43
2018-08-22T09:09:46.131Z,1.60
2018-08-22T09:12:14.171Z,1.20
2018-08-22T09:14:42.227Z,1.37
2018-08-22T09:17:10.276Z,1.23
2018-08-22T09:19:38.426Z,1.70
2018-08-22T09:22:06.459Z,1.40
2018-08-22T09:24:34.509Z,1.10
2018-08-22T09:27:02.546Z,1.37
2018-08-22T09:29:30.592Z,1.23
2018-08-22T09:31:58.637Z,1.17
2018-08-22T09:34:26.680Z,1.50
2018-08-22T09:36:54.779Z,1.10
2018-08-22T09:39:22.835Z,1.07
2018-08-22T09:41:50.859Z,1.30
2018-08-22T09:44:18.934Z,1.10
2018-08-22T09:46:47.016Z,1.30
2018-08-22T09:49:15.045Z,4.33
2018-08-22T09:51:43.062Z,1.00
2018-08-22T09:54:11.166Z,0.80
2018-08-22T09:56:39.207Z,1.10
2018-08-22T09:59:07.260Z,1.00
2018-08-22T10:01:41.627Z,0.90
2018-08-22T10:04:09.675Z,1.40
2018-08-22T10:06:39.611Z,1.00
2018-08-22T10:09:09.559Z,0.70
2018-08-22T10:11:37.719Z,0.80
2018-08-22T10:14:05.777Z,2.13
2018-08-22T10:16:33.810Z,1.73
2018-08-22T10:19:01.961Z,1.10
2018-08-22T10:21:29.959Z,0.80
2018-08-22T10:23:58.004Z,0.90
2018-08-22T10:26:26.088Z,1.10
2018-08-22T10:28:54.504Z,0.93
2018-08-22T10:31:23.083Z,1.07
2018-08-22T10:33:51.140Z,1.10
2018-08-22T10:36:19.327Z,0.97
2018-08-22T10:38:47.374Z,0.90
2018-08-22T10:41:15.619Z,0.70
2018-08-22T10:43:43.649Z,0.97
2018-08-22T10:46:11.691Z,0.80
2018-08-22T10:48:39.782Z,0.80
2018-08-22T10:51:08.408Z,1.53
2018-08-22T10:53:36.538Z,1.20
2018-08-22T10:56:04.579Z,1.03
2018-08-22T10:58:32.686Z,0.87
2018-08-22T11:01:01.255Z,1.80
2018-08-22T11:03:29.443Z,0.77
2018-08-22T11:05:57.486Z,0.97
2018-08-22T11:08:25.522Z,1.07
2018-08-22T11:10:53.567Z,1.07
2018-08-22T11:13:21.606Z,1.10
2018-08-22T11:15:49.695Z,1.20
2018-08-22T11:18:17.755Z,1.00
2018-08-22T11:20:49.222Z,0.90
2018-08-22T11:23:30.029Z,1.00
2018-08-22T11:26:10.343Z,1.00
2018-08-22T11:28:49.946Z,1.20
2018-08-22T11:31:29.722Z,0.90
2018-08-22T11:34:09.411Z,0.90
2018-08-22T11:36:36.926Z,0.80
2018-08-22T11:39:06.983Z,1.10
2018-08-22T11:41:35.023Z,0.93
2018-08-22T11:44:03.055Z,0.90
2018-08-22T11:46:31.099Z,1.00
2018-08-22T11:48:59.127Z,0.90
2018-08-22T11:51:27.191Z,0.93
2018-08-22T11:53:55.232Z,1.13
2018-08-22T11:56:23.377Z,0.90
2018-08-22T11:58:51.402Z,1.00
2018-08-22T12:01:19.467Z,1.10
2018-08-22T12:03:47.498Z,1.50
2018-08-22T12:06:15.545Z,1.10
2018-08-22T12:08:43.576Z,1.27
2018-08-22T12:11:11.700Z,1.33
2018-08-22T12:13:39.842Z,1.00
2018-08-22T12:16:08.007Z,0.90
2018-08-22T12:18:36.094Z,1.30
2018-08-22T12:21:04.138Z,1.00
2018-08-22T12:23:32.172Z,1.00
2018-08-22T12:26:00.306Z,0.90
2018-08-22T12:28:28.348Z,0.90
2018-08-22T12:30:56.391Z,1.20
2018-08-22T12:33:24.434Z,1.10
2018-08-22T12:35:52.490Z,1.00
2018-08-22T12:38:20.532Z,1.60
2018-08-22T12:40:48.602Z,1.00
2018-08-22T12:43:16.875Z,2.30
2018-08-22T12:45:44.933Z,1.10
2018-08-22T12:48:13.070Z,1.33
2018-08-22T12:50:41.194Z,1.57
2018-08-22T12:53:09.240Z,1.30
2018-08-22T12:55:37.384Z,1.10
2018-08-22T12:58:05.472Z,1.70
2018-08-22T13:00:33.524Z,1.50
2018-08-22T13:03:01.622Z,1.70
2018-08-22T13:05:29.683Z,1.40
2018-08-22T13:07:57.722Z,1.40
2018-08-22T13:10:25.766Z,1.30
2018-08-22T13:12:53.798Z,1.43
2018-08-22T13:15:21.852Z,1.67
2018-08-22T13:17:49.987Z,1.60
2018-08-22T13:20:18.026Z,1.73
2018-08-22T13:22:46.068Z,1.70
2018-08-22T13:25:14.123Z,1.83
2018-08-22T13:27:42.158Z,1.80
2018-08-22T13:30:10.254Z,1.70
2018-08-22T13:32:38.257Z,1.80
2018-08-22T13:35:06.598Z,1.83
2018-08-22T13:37:34.642Z,2.30
2018-08-22T13:40:02.683Z,2.20
2018-08-22T13:42:30.792Z,2.43
2018-08-22T13:44:58.836Z,1.70
2018-08-22T13:47:26.878Z,2.33
2018-08-22T13:49:55.195Z,1.83
2018-08-22T13:52:23.281Z,1.80
2018-08-22T13:54:51.627Z,2.03
2018-08-22T13:57:19.671Z,2.00
2018-08-22T13:59:47.820Z,2.30
2018-08-22T14:02:15.874Z,1.73
2018-08-22T14:04:43.931Z,2.47
2018-08-22T14:07:12.002Z,2.50
2018-08-22T14:09:40.043Z,2.20
2018-08-22T14:12:08.168Z,2.30
2018-08-22T14:14:36.194Z,2.77
2018-08-22T14:17:04.412Z,2.70
2018-08-22T14:19:32.462Z,2.83
2018-08-22T14:22:00.511Z,3.13
2018-08-22T14:24:28.544Z,3.40
2018-08-22T14:26:56.590Z,3.03
2018-08-22T14:29:24.622Z,3.00
2018-08-22T14:31:52.696Z,2.87
2018-08-22T14:34:20.728Z,2.40
2018-08-22T14:36:48.850Z,2.50
2018-08-22T14:39:16.913Z,2.70
2018-08-22T14:41:44.958Z,2.50
2018-08-22T14:44:13.094Z,3.10
2018-08-22T14:46:41.242Z,2.50
2018-08-22T14:49:09.275Z,3.03
2018-08-22T14:51:37.403Z,3.40
2018-08-22T14:54:05.780Z,4.30
2018-08-22T14:56:33.869Z,3.03
2018-08-22T14:59:01.908Z,2.43
2018-08-22T15:01:29.993Z,2.70
2018-08-22T15:03:58.024Z,2.93
2018-08-22T15:06:26.076Z,2.93
2018-08-22T15:09:02.043Z,2.87
2018-08-22T15:11:30.144Z,2.73
2018-08-22T15:13:58.186Z,2.97
2018-08-22T15:16:26.266Z,2.90
2018-08-22T15:18:54.768Z,2.97
2018-08-22T15:21:22.871Z,2.90
2018-08-22T15:23:51.615Z,3.10
2018-08-22T15:26:19.650Z,3.10
2018-08-22T15:28:47.758Z,3.13
2018-08-22T15:31:15.795Z,2.70
2018-08-22T15:33:44.420Z,3.03
2018-08-22T15:36:12.457Z,2.87
2018-08-22T15:38:40.784Z,2.67
2018-08-22T15:41:08.830Z,3.70
2018-08-22T15:43:37.115Z,3.17
2018-08-22T15:46:05.154Z,2.83
2018-08-22T15:48:33.214Z,3.00
2018-08-22T15:51:01.874Z,3.07
2018-08-22T15:53:30.213Z,5.37
2018-08-22T15:55:58.295Z,3.13
2018-08-22T15:58:26.450Z,3.60
2018-08-22T16:00:54.931Z,3.30
2018-08-22T16:03:24.230Z,3.07
2018-08-22T16:05:52.962Z,2.80
2018-08-22T16:08:22.344Z,2.60
2018-08-22T16:10:50.382Z,3.00
2018-08-22T16:13:23.886Z,2.90
2018-08-22T16:15:53.230Z,3.00
2018-08-22T16:18:21.474Z,3.03
2018-08-22T16:21:00.943Z,3.10
2018-08-22T16:23:30.832Z,2.90
2018-08-22T16:26:00.008Z,2.70
2018-08-22T16:28:34.862Z,3.13
2018-08-22T16:31:03.033Z,3.17
2018-08-22T16:33:31.059Z,3.00
2018-08-22T16:35:59.237Z,3.07
2018-08-22T16:38:27.259Z,3.00
2018-08-22T16:40:55.407Z,3.30
2018-08-22T16:43:37.744Z,3.43
2018-08-22T16:46:06.406Z,3.77
2018-08-22T16:48:34.454Z,3.33
2018-08-22T16:51:02.503Z,3.47
2018-08-22T16:53:30.807Z,3.63
2018-08-22T16:55:58.838Z,3.40
2018-08-22T16:58:26.908Z,3.20
2018-08-22T17:00:54.943Z,3.63
2018-08-22T17:03:22.989Z,3.37
2018-08-22T17:06:00.009Z,3.70
2018-08-22T17:08:28.784Z,4.37
2018-08-22T17:10:59.280Z,4.70
2018-08-22T17:13:36.790Z,4.20
2018-08-22T17:16:05.142Z,3.33
2018-08-22T17:18:33.210Z,4.00
2018-08-22T17:21:01.244Z,3.53
2018-08-22T17:23:29.311Z,3.20
2018-08-22T17:25:57.350Z,3.10
2018-08-22T17:28:34.602Z,3.20
2018-08-22T17:31:03.294Z,3.87
2018-08-22T17:33:38.963Z,4.03
2018-08-22T17:36:07.934Z,3.43
2018-08-22T17:38:36.016Z,2.87
2018-08-22T17:41:04.052Z,2.40
2018-08-22T17:43:43.423Z,2.50
2018-08-22T17:46:11.459Z,2.80
2018-08-22T17:48:39.602Z,2.13
2018-08-22T17:51:07.642Z,2.40
2018-08-22T17:53:35.752Z,2.33
2018-08-22T17:56:03.799Z,2.40
2018-08-22T17:58:31.840Z,2.17
2018-08-22T18:01:00.055Z,2.47
2018-08-22T18:03:28.230Z,2.27
2018-08-22T18:05:56.302Z,2.10
2018-08-22T18:08:24.342Z,2.80
2018-08-22T18:10:52.391Z,2.43
2018-08-22T18:13:20.434Z,2.77
2018-08-22T18:15:49.326Z,2.83
2018-08-22T18:18:19.594Z,2.63
2018-08-22T18:20:48.604Z,2.27
2018-08-22T18:23:17.252Z,2.50
2018-08-22T18:25:51.008Z,2.53
2018-08-22T18:28:19.130Z,2.90
2018-08-22T18:30:47.248Z,2.73
2018-08-22T18:33:15.728Z,3.10
2018-08-22T18:35:44.987Z,3.20
2018-08-22T18:38:13.503Z,3.10
2018-08-22T18:40:41.640Z,3.07
2018-08-22T18:43:10.018Z,2.60
2018-08-22T18:46:09.638Z,2.90
2018-08-22T18:48:37.740Z,3.00
2018-08-22T18:51:05.867Z,3.37
2018-08-22T18:53:33.910Z,2.50
2018-08-22T18:56:11.358Z,3.07
2018-08-22T18:58:39.642Z,3.13
2018-08-22T19:01:07.747Z,3.00
2018-08-22T19:03:36.252Z,2.80
2018-08-22T19:06:04.458Z,2.80
2018-08-22T19:08:36.313Z,3.10
2018-08-22T19:11:04.390Z,3.27
2018-08-22T19:13:32.427Z,2.60
2018-08-22T19:16:03.007Z,2.60
2018-08-22T19:18:31.050Z,2.70
2018-08-22T19:21:00.869Z,2.70
2018-08-22T19:23:29.211Z,2.80
2018-08-22T19:25:57.915Z,2.20
2018-08-22T19:28:25.972Z,2.57
2018-08-22T19:30:54.014Z,2.40
2018-08-22T19:33:23.247Z,2.57
2018-08-22T19:35:51.332Z,2.63
2018-08-22T19:38:20.811Z,2.60
2018-08-22T19:40:48.850Z,2.67
2018-08-22T19:43:16.894Z,2.60
2018-08-22T19:45:44.986Z,2.73
2018-08-22T19:48:13.205Z,2.20
2018-08-22T19:50:41.272Z,2.30
2018-08-22T19:53:09.342Z,2.70
2018-08-22T19:55:37.939Z,2.50
2018-08-22T19:58:06.329Z,2.30
2018-08-22T20:00:34.378Z,2.70
2018-08-22T20:03:02.425Z,2.30
2018-08-22T20:05:45.606Z,2.70
2018-08-22T20:08:14.063Z,2.80
2018-08-22T20:10:42.134Z,2.53
2018-08-22T20:13:10.175Z,2.53
2018-08-22T20:15:38.207Z,2.20
2018-08-22T20:18:06.336Z,2.53
2018-08-22T20:20:34.362Z,2.40
2018-08-22T20:23:02.438Z,2.77
2018-08-22T20:25:30.479Z,2.80
2018-08-22T20:28:00.291Z,3.10
2018-08-22T20:30:28.358Z,2.70
2018-08-22T20:33:01.972Z,2.53
2018-08-22T20:35:35.866Z,2.63
2018-08-22T20:38:05.235Z,2.30
2018-08-22T20:40:33.274Z,2.67
2018-08-22T20:43:01.311Z,2.90
2018-08-22T20:45:34.558Z,2.70
2018-08-22T20:48:08.046Z,2.40
2018-08-22T20:50:37.466Z,2.90
2018-08-22T20:53:07.179Z,2.63
2018-08-22T20:55:35.236Z,2.63
2018-08-22T20:58:03.926Z,2.60
2018-08-22T21:00:33.246Z,2.50
2018-08-22T21:03:01.338Z,2.97
2018-08-22T21:05:29.343Z,2.63
2018-08-22T21:07:57.443Z,2.90
2018-08-22T21:10:25.477Z,2.80
2018-08-22T21:12:53.514Z,2.80
2018-08-22T21:15:21.546Z,3.20
2018-08-22T21:17:49.623Z,3.00
2018-08-22T21:20:22.501Z,2.53
2018-08-22T21:22:50.881Z,3.03
2018-08-22T21:25:18.943Z,2.50
2018-08-22T21:27:47.847Z,2.63
2018-08-22T21:30:16.415Z,2.40
2018-08-22T21:32:45.223Z,2.57
2018-08-22T21:35:17.527Z,3.07
2018-08-22T21:37:45.612Z,2.77
2018-08-22T21:40:13.655Z,3.03
2018-08-22T21:42:42.510Z,2.87
2018-08-22T21:45:11.020Z,2.70
2018-08-22T21:47:39.171Z,2.60
2018-08-22T21:50:07.392Z,2.67
2018-08-22T21:52:54.359Z,3.10
2018-08-22T21:55:26.315Z,3.10
2018-08-22T21:57:54.386Z,2.83
2018-08-22T22:00:26.264Z,3.00
2018-08-22T22:02:54.298Z,3.03
2018-08-22T22:05:32.591Z,3.20
2018-08-22T22:08:01.131Z,3.00
2018-08-22T22:10:29.188Z,2.93
2018-08-22T22:12:57.231Z,3.43
2018-08-22T22:15:30.762Z,3.03
2018-08-22T22:17:58.815Z,3.13
2018-08-22T22:20:27.191Z,3.10
2018-08-22T22:22:55.244Z,2.87
2018-08-22T22:25:23.270Z,3.10
2018-08-22T22:27:51.326Z,3.07
2018-08-22T22:30:19.355Z,2.87
2018-08-22T22:32:47.453Z,2.97
2018-08-22T22:35:17.554Z,3.30
2018-08-22T22:37:45.604Z,3.00
2018-08-22T22:40:13.644Z,3.30
2018-08-22T22:42:41.702Z,3.10
2018-08-22T22:45:09.739Z,3.17
2018-08-22T22:47:37.831Z,3.10
2018-08-22T22:50:05.883Z,3.40
2018-08-22T22:52:39.323Z,3.33
2018-08-22T22:55:08.179Z,3.60
2018-08-22T22:57:37.462Z,3.50
2018-08-22T23:00:07.666Z,3.83
2018-08-22T23:02:35.707Z,3.70
2018-08-22T23:05:03.833Z,3.37
2018-08-22T23:07:33.026Z,3.30
2018-08-22T23:10:02.231Z,3.20
2018-08-22T23:12:37.868Z,3.80
2018-08-22T23:15:08.024Z,3.30
2018-08-22T23:17:36.065Z,3.87
2018-08-22T23:20:14.245Z,3.30
2018-08-22T23:22:42.274Z,3.67
2018-08-22T23:25:11.147Z,3.73
2018-08-22T23:27:40.224Z,3.80
2018-08-22T23:30:08.506Z,3.97
2018-08-22T23:32:37.607Z,3.70
2018-08-22T23:35:19.094Z,3.30
2018-08-22T23:37:50.220Z,3.70
2018-08-22T23:40:18.504Z,3.90
2018-08-22T23:42:46.538Z,3.60
2018-08-22T23:45:14.591Z,3.33
2018-08-22T23:47:42.628Z,3.30
2018-08-22T23:50:10.671Z,3.33
2018-08-22T23:52:44.079Z,3.60
2018-08-22T23:55:12.126Z,3.80
2018-08-22T23:57:40.216Z,3.43
